Flight Track Log - Related Links

Times and Time Zones

All times are in EDT time to prevent confusion due to time zone crossing. See the N499RC flight status page for this flight to view local times or setup timezone preferences in your user account.

Time Position Orientation Groundspeed Altitude Reporting Facility
EDT Latitude Longitude Course Direction KTS MPH feet Rate Location/Type
Thu 04:07:09 PM 27.0222 -81.9697 336° Northwest 215 247 2,600  Level Miami Center
Thu 04:08:09 PM 27.0869 -81.9725 358° North 227 261 4,700 2,050 Climbing Miami Center
Thu 04:09:09 PM 27.1453 -81.9750 358° North 217 250 6,700 1,950 Climbing Miami Center
Thu 04:10:09 PM 27.2036 -81.9753 360° North 212 244 8,600 1,800 Climbing Miami Center
Thu 04:11:09 PM 27.2642 -81.9781 358° North 212 244 10,300 1,700 Climbing Miami Center
Thu 04:12:00 PM 27.4866 -81.9183 336° Northwest  Level FlightAware Approximate
Thu 04:12:09 PM 27.3286 -81.9831 356° North 217 250 12,000  Level Miami Center
Thu 04:13:09 PM 27.3886 -81.9975 348° North 217 250 13,700 1,450 Climbing Miami Center
Thu 04:14:09 PM 27.4436 -82.0350 329° Northwest 217 250 14,900 1,000 Climbing Miami Center
Thu 04:15:09 PM 27.5086 -82.0847 326° Northwest 237 273 15,700 650 Climbing Miami Center
Thu 04:16:09 PM 27.5831 -82.1044 347° North 271 312 16,200 800 Climbing Miami Center
Thu 04:17:09 PM 27.6742 -82.1253 349° North 296 341 17,300 974 Climbing Miami Center
Thu 04:19:20 PM 27.8578 -82.1719 347° North 295 339 19,300 848 Climbing Jacksonville Center
Thu 04:20:20 PM 27.9353 -82.1878 350° North 301 346 20,000 800 Climbing Jacksonville Center
Thu 04:21:20 PM 28.0250 -82.2108 347° North 307 353 20,900 850 Climbing Jacksonville Center
Thu 04:22:20 PM 28.1128 -82.2289 350° North 314 361 21,700 800 Climbing Jacksonville Center
Thu 04:23:20 PM 28.2047 -82.2494 349° North 319 367 22,500 850 Climbing Jacksonville Center
Thu 04:24:20 PM 28.2967 -82.2750 346° North 324 373 23,400 800 Climbing Jacksonville Center
Thu 04:25:20 PM 28.3844 -82.3169 337° Northwest 330 380 24,100 700 Climbing Jacksonville Center
Thu 04:26:20 PM 28.4661 -82.3683 331° Northwest 330 380 24,800 700 Climbing Jacksonville Center
Thu 04:27:20 PM 28.5519 -82.4200 332° Northwest 335 386 25,500 750 Climbing Jacksonville Center
Thu 04:28:20 PM 28.6375 -82.4692 333° Northwest 340 391 26,300 850 Climbing Jacksonville Center
Thu 04:29:20 PM 28.7317 -82.5256 332° Northwest 345 397 27,200 800 Climbing Jacksonville Center
Thu 04:30:20 PM 28.8172 -82.5750 333° Northwest 347 399 27,900 650 Climbing Jacksonville Center
Thu 04:31:20 PM 28.9050 -82.6222 335° Northwest 347 399 28,500 550 Climbing Jacksonville Center
Thu 04:32:20 PM 28.9867 -82.6622 337° Northwest 347 399 29,000 500 Climbing Jacksonville Center
Thu 04:33:20 PM 29.0744 -82.7167 332° Northwest 347 399 29,500 500 Climbing Jacksonville Center
Thu 04:34:20 PM 29.1619 -82.7689 332° Northwest 347 399 30,000 650 Climbing Jacksonville Center
Thu 04:35:20 PM 29.2519 -82.8258 331° Northwest 352 405 30,800 750 Climbing Jacksonville Center
Thu 04:36:20 PM 29.3353 -82.8831 329° Northwest 357 411 31,500 650 Climbing Jacksonville Center
Thu 04:37:20 PM 29.4189 -82.9428 328° Northwest 357 411 32,100 600 Climbing Jacksonville Center
Thu 04:38:20 PM 29.5192 -83.0119 329° Northwest 376 433 32,700 650 Climbing Jacksonville Center
Thu 04:39:20 PM 29.6025 -83.0694 329° Northwest 361 415 33,400 500 Climbing Jacksonville Center
Thu 04:41:00 PM 29.7604 -83.1256 344° North  Level FlightAware Approximate
Thu 04:44:20 PM 30.0822 -83.2358 345° North 362 417 35,700  Level Jacksonville Center
Thu 04:45:20 PM 30.1825 -83.2650 343° North 362 417 36,000 350 Climbing Jacksonville Center
Thu 04:46:00 PM 30.2408 -83.2871 344° North  Level FlightAware Approximate
Thu 04:46:20 PM 30.2825 -83.2919 347° North 362 417 36,400  Level Jacksonville Center
Thu 04:47:20 PM 30.3828 -83.3211 346° North 367 422 36,800 400 Climbing Jacksonville Center
Thu 04:48:00 PM 30.4249 -83.3465 345° North  Level FlightAware Approximate
Thu 04:48:20 PM 30.4869 -83.3531 345° North 362 417 37,200  Level Jacksonville Center
Thu 04:49:00 PM 30.5202 -83.3768 345° North  Level FlightAware Approximate
Thu 04:49:20 PM 30.5892 -83.3825 346° North 362 417 37,400  Level Jacksonville Center
Thu 04:50:20 PM 30.6892 -83.4119 346° North 362 417 37,700 300 Climbing Jacksonville Center
Thu 04:51:20 PM 30.7872 -83.4464 343° North 362 417 38,000 150 Climbing Jacksonville Center
Thu 04:52:20 PM 30.8853 -83.4808 343° North 362 417 38,000  Level Jacksonville Center
Thu 04:53:00 PM 30.8566 -83.4887 343° North  Level FlightAware Approximate
Thu 04:53:20 PM 30.9853 -83.5153 344° North 362 417 38,000  Level Jacksonville Center
Thu 04:54:20 PM 31.0853 -83.5475 345° North 362 417 38,000  Level Jacksonville Center
Thu 04:55:20 PM 31.1917 -83.5847 343° North 368 423 38,000  Level Jacksonville Center
Thu 04:57:37 PM 31.4164 -83.6617 344° North 378 435 38,000  Level Atlanta Center
Thu 04:58:37 PM 31.5167 -83.6978 343° North 372 428 38,000  Level Atlanta Center
Thu 04:59:37 PM 31.6211 -83.7317 345° North 367 422 38,000  Level Atlanta Center
Thu 05:00:37 PM 31.7214 -83.7728 341° North 367 422 38,000  Level Atlanta Center
Thu 05:01:37 PM 31.8425 -83.8164 343° North 390 449 38,000  Level Atlanta Center
Thu 05:02:37 PM 31.9447 -83.8481 345° North 395 455 38,000  Level Atlanta Center
Thu 05:03:37 PM 32.0450 -83.8819 344° North 385 443 38,000  Level Atlanta Center
Thu 05:04:37 PM 32.1472 -83.9114 346° North 379 436 38,000  Level Atlanta Center
Thu 05:05:37 PM 32.2475 -83.9456 344° North 379 436 38,000  Level Atlanta Center
Thu 05:06:37 PM 32.3497 -83.9775 345° North 379 436 38,000  Level Atlanta Center
Thu 05:07:37 PM 32.4478 -84.0117 344° North 374 430 38,000  Level Atlanta Center
Thu 05:08:37 PM 32.5481 -84.0389 347° North 374 430 38,000  Level Atlanta Center
Thu 05:09:37 PM 32.6483 -84.0758 343° North 374 430 38,000  Level Atlanta Center
Thu 05:10:37 PM 32.7506 -84.1081 345° North 374 430 38,000  Level Atlanta Center
Thu 05:11:37 PM 32.8486 -84.1403 345° North 374 430 38,000  Level Atlanta Center
Thu 05:12:37 PM 32.9489 -84.1725 345° North 374 430 38,000  Level Atlanta Center
Thu 05:13:37 PM 33.0489 -84.2025 346° North 374 430 38,000  Level Atlanta Center
Thu 05:14:37 PM 33.1367 -84.2347 343° North 362 417 38,000  Level Atlanta Center
Thu 05:15:37 PM 33.2325 -84.2697 343° North 362 417 38,000  Level Atlanta Center
Thu 05:16:37 PM 33.3328 -84.2925 349° North 362 417 38,000  Level Atlanta Center
Thu 05:17:37 PM 33.4433 -84.3103 352° North 362 417 38,000  Level Atlanta Center
Thu 05:18:37 PM 33.5414 -84.3478 342° North 362 417 38,000  Level Atlanta Center
Thu 05:19:37 PM 33.6350 -84.3906 339° North 362 417 38,000  Level Atlanta Center
Thu 05:20:37 PM 33.7372 -84.4286 343° North 369 425 38,000  Level Atlanta Center
Thu 05:21:37 PM 33.8289 -84.4639 342° North 364 419 38,000  Level Atlanta Center
Thu 05:22:37 PM 33.9333 -84.4994 344° North 370 426 38,000  Level Atlanta Center
Thu 05:23:37 PM 34.0228 -84.5275 345° North 365 420 38,000  Level Atlanta Center
Thu 05:24:37 PM 34.1208 -84.5633 343° North 365 420 38,000  Level Atlanta Center
Thu 05:25:37 PM 34.2356 -84.5967 346° North 370 426 38,000  Level Atlanta Center
Thu 05:26:37 PM 34.3333 -84.6325 343° North 375 432 38,000  Level Atlanta Center
Thu 05:27:37 PM 34.4333 -84.6683 344° North 375 432 38,000  Level Atlanta Center
Thu 05:28:37 PM 34.5356 -84.7044 344° North 375 432 38,000  Level Atlanta Center
Thu 05:29:37 PM 34.6356 -84.7406 343° North 375 432 38,000  Level Atlanta Center
Thu 05:30:37 PM 34.7208 -84.7767 341° North 370 426 38,000  Level Atlanta Center
Thu 05:31:37 PM 34.8208 -84.8106 344° North 370 426 38,000  Level Atlanta Center
Thu 05:32:37 PM 34.9228 -84.8494 343° North 370 426 38,000  Level Atlanta Center
Thu 05:33:37 PM 35.0247 -84.8833 345° North 370 426 38,000  Level Atlanta Center
Thu 05:34:37 PM 35.1247 -84.9225 342° North 375 432 38,000  Level Atlanta Center
Thu 05:35:37 PM 35.2244 -84.9592 343° North 375 432 38,000  Level Atlanta Center
Thu 05:36:37 PM 35.3244 -85.0011 341° North 380 437 38,000  Level Atlanta Center
Thu 05:37:37 PM 35.4264 -85.0353 345° North 380 437 38,000  Level Atlanta Center
Thu 05:38:37 PM 35.5283 -85.0747 343° North 380 437 38,000  Level Atlanta Center
Thu 05:39:37 PM 35.6303 -85.1092 345° North 375 432 38,000  Level Atlanta Center
Thu 05:40:45 PM 35.7575 -85.1539 344° North 384 442 38,000  Level Memphis Center
Thu 05:42:59 PM 35.9897 -85.2317 345° North 384 442 38,000  Level Indianapolis Center
Thu 05:44:01 PM 36.0933 -85.2669 345° North 383 441 38,000  Level Indianapolis Center
Thu 05:45:03 PM 36.1958 -85.3033 344° North 381 438 38,000  Level Indianapolis Center
Thu 05:46:05 PM 36.2969 -85.3425 343° North 380 437 38,000  Level Indianapolis Center
Thu 05:47:07 PM 36.3986 -85.3786 344° North 380 437 38,000  Level Indianapolis Center
Thu 05:48:09 PM 36.5003 -85.4181 343° North 381 438 38,000  Level Indianapolis Center
Thu 05:49:11 PM 36.6225 -85.4642 343° North 381 438 38,000  Level Indianapolis Center
Thu 05:50:13 PM 36.7236 -85.5019 343° North 380 437 38,000  Level Indianapolis Center
Thu 05:51:15 PM 36.8172 -85.5361 344° North 383 441 38,000  Level Indianapolis Center
Thu 05:52:18 PM 36.9181 -85.5756 343° North 378 435 38,000  Level Indianapolis Center
Thu 05:53:20 PM 37.0383 -85.6161 345° North 380 437 38,000  Level Indianapolis Center
Thu 05:54:22 PM 37.1389 -85.6575 342° North 379 436 38,000  Level Indianapolis Center
Thu 05:55:24 PM 37.2400 -85.6997 342° North 379 436 38,000  Level Indianapolis Center
Thu 05:56:26 PM 37.3378 -85.7356 344° North 381 438 38,000  Level Indianapolis Center
Thu 05:57:28 PM 37.4383 -85.7772 342° North 380 437 38,000  Level Indianapolis Center
Thu 05:58:30 PM 37.5406 -85.8156 343° North 380 437 38,000  Level Indianapolis Center
Thu 05:59:32 PM 37.6619 -85.8642 342° North 382 440 38,000  Level Indianapolis Center
Thu 06:00:34 PM 37.7625 -85.9078 341° North 382 440 38,000  Level Indianapolis Center
Thu 06:01:36 PM 37.8631 -85.9522 341° North 383 441 38,000 -242 Level Indianapolis Center
Thu 06:02:38 PM 37.9633 -85.9944 342° North 380 437 37,500 -871 Descending Indianapolis Center
Thu 06:03:40 PM 38.0714 -86.0431 340° North 405 466 36,200 -1,016 Descending Indianapolis Center
Thu 06:04:42 PM 38.1794 -86.0897 341° North 409 471 35,400 -774 Descending Indianapolis Center
Thu 06:05:44 PM 38.3125 -86.1361 345° North 414 476 34,600 -726 Descending Indianapolis Center
Thu 06:06:46 PM 38.4231 -86.1814 342° North 418 481 33,900 -919 Descending Indianapolis Center
Thu 06:07:48 PM 38.5367 -86.2181 346° North 420 483 32,700 -919 Descending Indianapolis Center
Thu 06:08:50 PM 38.6458 -86.2583 344° North 412 474 32,000 -532 Descending Indianapolis Center
Thu 06:09:52 PM 38.7564 -86.2975 345° North 410 472 31,600 -581 Descending Indianapolis Center
Thu 06:10:54 PM 38.8653 -86.3503 339° North 417 480 30,800 -774 Descending Indianapolis Center
Thu 06:11:56 PM 38.9789 -86.3975 342° North 412 474 30,000 -726 Descending Indianapolis Center
Thu 06:12:58 PM 39.1081 -86.4542 341° North 410 472 29,300 -871 Descending Indianapolis Center
Thu 06:14:00 PM 39.2200 -86.5014 342° North 421 484 28,200 -912 Descending Indianapolis Center
Thu 06:15:03 PM 39.3317 -86.5486 342° North 422 486 27,400 -816 Descending Indianapolis Center
Thu 06:16:05 PM 39.4414 -86.5978 341° North 417 480 26,500 -677 Descending Indianapolis Center
Thu 06:17:07 PM 39.5525 -86.6425 343° North 415 478 26,000 -242 Descending Indianapolis Center
Thu 06:18:09 PM 39.6586 -86.6875 342° North 402 463 26,000  Level Indianapolis Center
Thu 06:19:11 PM 39.7633 -86.7325 342° North 395 455 26,000  Level Indianapolis Center
Thu 06:20:13 PM 39.8672 -86.7772 342° North 393 452 26,000 -194 Level Indianapolis Center
Thu 06:21:15 PM 39.9925 -86.8339 341° North 393 452 25,600 -823 Descending Indianapolis Center
Thu 06:22:17 PM 40.1011 -86.8769 343° North 405 466 24,300 -1,267 Descending Indianapolis Center
Thu 06:22:45 PM 40.1458 -86.8997 339° North 410 472 23,700 -1,685 Descending Chicago Center
Thu 06:23:46 PM 40.2503 -86.9447 342° North 398 458 21,800 -1,951 Descending Chicago Center
Thu 06:24:48 PM 40.3497 -86.9917 340° North 383 441 19,700 -2,129 Descending Chicago Center
Thu 06:25:50 PM 40.4689 -87.0450 341° North 378 435 17,400 -1,694 Descending Chicago Center
Thu 06:26:52 PM 40.5592 -87.0881 340° North 349 402 16,200 -1,161 Descending Chicago Center
Thu 06:27:54 PM 40.6447 -87.1281 340° North 338 389 15,000 -1,113 Descending Chicago Center
Thu 06:28:56 PM 40.7314 -87.1761 337° Northwest 338 389 13,900 -1,113 Descending Chicago Center
Thu 06:29:58 PM 40.8175 -87.2214 338° Northwest 334 384 12,700 -1,248 Descending Chicago Center
Thu 06:31:01 PM 40.9103 -87.2764 336° Northwest 308 354 11,300 -1,296 Descending Chicago Center
Thu 06:32:03 PM 40.9856 -87.3139 339° North 293 337 10,000 -629 Descending Chicago Center
Thu 06:33:05 PM 41.0342 -87.3906 310° West 269 310 10,000 -339 Level Chicago Center
Thu 06:34:07 PM 41.0844 -87.4731 309° West 283 326 9,300 -823 Descending Chicago Center
Thu 06:35:09 PM 41.1325 -87.5544 308° West 284 327 8,300 -629 Descending Chicago Center
Thu 06:36:11 PM 41.1872 -87.6575 305° West 284 327 8,000 -145 Descending Chicago Center
Thu 06:37:13 PM 41.2222 -87.7531 296° West 289 333 8,000  Level Chicago Center
Thu 06:38:15 PM 41.2589 -87.8433 298° West 280 322 8,000 -290 Level Chicago Center
Thu 06:39:17 PM 41.2956 -87.9389 297° West 289 333 7,400 -1,210 Descending Chicago Center
Thu 06:40:19 PM 41.3383 -88.0317 302° West 298 343 5,500 -1,645 Descending Chicago Center
Thu 06:41:21 PM 41.3931 -88.1108 313° West 288 331 4,000 -726 Descending Chicago Center
Thu 06:42:23 PM 41.4442 -88.1914 310° West 283 326 4,000  Level Chicago Center
Thu 06:43:26 PM 41.5053 -88.2858 311° West 280 322 4,000  Level Chicago Center
Thu 06:44:28 PM 41.5572 -88.3517 317° Northwest 273 314 4,000 -484 Level Chicago Center
Thu 06:45:30 PM 41.6308 -88.3586 356° North 270 311 3,000 -484 Descending Chicago Center
Thu 06:46:32 PM 41.6883 -88.3214 26° Northeast 239 275 3,000  Level Chicago Center
Thu 06:47:34 PM 41.7500 -88.3014 14° North 229 264 3,000 -516 Level Chicago Center
Thu 06:49:38 PM 41.8631 -88.2650 13° North 171 197 1,400 -645 Descending Chicago Center
Thu 06:50:40 PM 41.8889 -88.2564 14° North 145 167 1,000 -387 Descending Chicago Center

Login

Don't have an account? Register now (free) for customized features, flight alerts, and more!